Aeroporto :
LOGIN :

Iscrizione | Disclaimer

   EN    FR    IT 

 










Sommario :    VFR   VFR Marginale   IFR   IFR Intensivo   IFR Molto Intensivo
Visibilità : 
Base nubi : 
>= 8 km
>= 3000ft
5 / 8 km
1000 / 3000 ft
1500m / 5 km
500 / 1000 ft
800 / 1500m
200 / 500 ft
< 800m
< 200 ft
Simboli :   Temporali  Nebbia  Neve Forte  Precipitazioni Forti  Vento > 20 kt
SIGMETs :   Varie  Temporali  Ghiacco  Turbolenza  Onda orograficha  Ceneri Vulcaniche






- Altitudine del aeroporto : 1521 ft
- Codice IATA : NCY


LFLP - Annecy

ULTIMO METAR :
  • 172030Z AUTO 10003KT 010V140 9999 BKN034 BKN041 OVC050 07/05 Q1028

METARs OBSOLETI :
  • 172000Z AUTO 02003KT 330V050 9999 -RA BKN031 BKN038 OVC046 07/05 Q1028 TEMPO 3000 RA OVC009
  • 171930Z AUTO VRB05KT 9999 -RA BKN028 BKN035 BKN043 07/05 Q1028 TEMPO 3000 RA OVC009
  • 171900Z AUTO 15004KT 100V180 9999 -RA FEW025 SCT032 BKN052 07/05 Q1028 TEMPO 3000 RA OVC009
  • 171830Z AUTO 14006KT 110V170 7000 -RA SCT025 OVC032 07/06 Q1027 TEMPO 3000 RA OVC009
  • 171800Z AUTO VRB02KT 6000 -RA BKN011 BKN025 BKN032 07/06 Q1027 TEMPO 3000 RA OVC009

TAF TAF LFLP
Valido dal 17 a 15 ore il 18 a 15 ore UTC


171400Z 1715/1815 22009KT 9999 -RA BKN025
TEMPO 1715/1721 VRB10KT 3000 RA OVC009
BECMG 1800/1803 VRB03KT CAVOK



MetMap, La meteo Aeronautica in un colpo d'occhio ! - Copyright ORBIFLY Dicembre 2007 - Disclaimer

ORBIFLY MET'MAP TEAM :

Programmazione e sviluppo : Alexandra Zaïnal
Concezione : Baudouin d'Aumeries
Aiuto per la programmazione : Marc-Olivier Méhu
Supporto tecnico e logistico : Manuel Goepfert
Aiuto per la traduzione : Arnaldo La Scala

Contatto : metmap@orbifly.com




FONTI E CREDITI :

   NOAA